createdAt,value
2022-08-16T00:01:56.867Z,94704.38
2022-08-16T00:04:28.609Z,94700.19
2022-08-16T00:06:57.901Z,94706.97
2022-08-16T00:09:25.873Z,94714.50
2022-08-16T00:11:55.559Z,94718.94
2022-08-16T00:14:30.500Z,94722.81
2022-08-16T00:17:15.656Z,94713.19
2022-08-16T00:19:49.028Z,94710.59
2022-08-16T00:22:24.823Z,94715.81
2022-08-16T00:24:54.728Z,94714.22
2022-08-16T00:27:23.095Z,94707.44
2022-08-16T00:30:00.504Z,94713.69
2022-08-16T00:32:32.924Z,94714.75
2022-08-16T00:35:01.840Z,94710.88
2022-08-16T00:37:58.173Z,94707.72
2022-08-16T00:40:34.486Z,94718.91
2022-08-16T00:43:05.305Z,94705.66
2022-08-16T00:45:57.950Z,94715.28
2022-08-16T00:48:28.695Z,94709.56
2022-08-16T00:50:59.765Z,94717.88
2022-08-16T00:53:30.669Z,94724.38
2022-08-16T00:56:05.248Z,94710.34
2022-08-16T00:58:36.083Z,94711.09
2022-08-16T01:01:08.582Z,94715.78
2022-08-16T01:03:41.348Z,94705.13
2022-08-16T01:06:39.963Z,94706.44
2022-08-16T01:09:04.763Z,94709.81
2022-08-16T01:11:33.988Z,94711.88
2022-08-16T01:14:06.900Z,94711.63
2022-08-16T01:16:36.065Z,94704.84
2022-08-16T01:19:11.345Z,94705.13
2022-08-16T01:21:45.091Z,94700.19
2022-08-16T01:24:51.753Z,94706.16
2022-08-16T01:27:22.701Z,94706.44
2022-08-16T01:29:58.006Z,94700.69
2022-08-16T01:32:33.797Z,94697.34
2022-08-16T01:35:07.315Z,94708.00
2022-08-16T01:37:43.432Z,94707.47
2022-08-16T01:40:16.179Z,94701.75
2022-08-16T01:42:48.137Z,94709.56
2022-08-16T01:45:19.640Z,94700.44
2022-08-16T01:47:52.034Z,94703.03
2022-08-16T01:51:05.105Z,94707.22
2022-08-16T01:53:11.945Z,94699.41
2022-08-16T01:56:01.480Z,94706.69
2022-08-16T01:58:33.209Z,94703.53
2022-08-16T02:01:01.378Z,94697.84
2022-08-16T02:03:30.588Z,94686.13
2022-08-16T02:05:58.404Z,94687.44
2022-08-16T02:08:33.719Z,94689.28
2022-08-16T02:11:07.958Z,94686.66
2022-08-16T02:13:36.075Z,94681.72
2022-08-16T02:16:18.580Z,94678.56
2022-08-16T02:18:47.806Z,94679.84
2022-08-16T02:21:17.048Z,94684.50
2022-08-16T02:23:59.942Z,94681.63
2022-08-16T02:26:29.591Z,94681.09
2022-08-16T02:29:02.698Z,94681.09
2022-08-16T02:32:03.616Z,94677.72
2022-08-16T02:34:20.232Z,94674.06
2022-08-16T02:37:00.970Z,94682.09
2022-08-16T02:39:30.273Z,94674.00
2022-08-16T02:42:00.333Z,94680.78
2022-08-16T02:44:28.593Z,94672.44
2022-08-16T02:46:57.752Z,94677.34
2022-08-16T02:49:32.209Z,94666.94
2022-08-16T02:52:24.891Z,94674.72
2022-08-16T02:55:02.545Z,94671.53
2022-08-16T02:57:33.578Z,94675.75
2022-08-16T03:00:34.114Z,94668.72
2022-08-16T03:02:56.419Z,94676.25
2022-08-16T03:05:25.741Z,94677.56
2022-08-16T03:07:59.334Z,94684.28
2022-08-16T03:10:33.240Z,94676.97
2022-08-16T03:13:04.112Z,94681.63
2022-08-16T03:15:41.026Z,94681.06
2022-08-16T03:18:12.419Z,94681.06
2022-08-16T03:20:46.966Z,94681.50
2022-08-16T03:23:23.860Z,94682.03
2022-08-16T03:25:51.703Z,94688.47
2022-08-16T03:28:22.120Z,94684.56
2022-08-16T03:30:52.546Z,94691.53
2022-08-16T03:33:23.866Z,94690.94
2022-08-16T03:35:59.231Z,94698.97
2022-08-16T03:38:47.621Z,94694.34
2022-08-16T03:41:25.220Z,94689.44
2022-08-16T03:44:00.548Z,94686.28
2022-08-16T03:46:47.185Z,94689.13
2022-08-16T03:49:23.563Z,94695.63
2022-08-16T03:52:07.539Z,94692.16
2022-08-16T03:54:37.620Z,94695.03
2022-08-16T03:57:06.612Z,94689.28
2022-08-16T03:59:43.499Z,94697.03
2022-08-16T04:02:22.415Z,94690.09
2022-08-16T04:05:00.024Z,94689.03
2022-08-16T04:07:33.503Z,94683.59
2022-08-16T04:10:35.926Z,94696.41
2022-08-16T04:12:53.705Z,94688.16
2022-08-16T04:15:35.168Z,94691.38
2022-08-16T04:18:14.479Z,94688.47
2022-08-16T04:20:43.049Z,94689.38
2022-08-16T04:23:11.180Z,94684.38
2022-08-16T04:25:41.722Z,94683.16
2022-08-16T04:28:29.218Z,94685.81
2022-08-16T04:31:07.412Z,94685.81
2022-08-16T04:33:51.074Z,94685.75
2022-08-16T04:36:21.671Z,94675.03
2022-08-16T04:38:50.152Z,94691.38
2022-08-16T04:41:20.413Z,94699.81
2022-08-16T04:44:01.720Z,94694.97
2022-08-16T04:47:02.735Z,94702.31
2022-08-16T04:49:19.000Z,94699.38
2022-08-16T04:51:53.894Z,94693.53
2022-08-16T04:54:23.519Z,94698.72
2022-08-16T04:56:51.453Z,94699.25
2022-08-16T04:59:22.133Z,94701.41
2022-08-16T05:01:59.168Z,94706.59
2022-08-16T05:04:30.032Z,94709.06
2022-08-16T05:06:58.703Z,94710.03
2022-08-16T05:09:58.357Z,94708.72
2022-08-16T05:12:30.487Z,94709.59
2022-08-16T05:15:01.947Z,94717.97
2022-08-16T05:17:32.782Z,94712.59
2022-08-16T05:20:35.138Z,94706.00
2022-08-16T05:22:53.678Z,94709.41
2022-08-16T05:25:24.177Z,94710.28
2022-08-16T05:28:10.754Z,94717.38
2022-08-16T05:30:43.993Z,94713.00
2022-08-16T05:33:22.934Z,94718.47
2022-08-16T05:35:55.513Z,94721.34
2022-08-16T05:38:40.082Z,94713.25
2022-08-16T05:41:13.793Z,94730.69
2022-08-16T05:43:46.839Z,94724.56
2022-08-16T05:46:29.442Z,94713.75
2022-08-16T05:49:08.871Z,94717.75
2022-08-16T05:51:41.498Z,94733.44
2022-08-16T05:54:11.310Z,94730.09
2022-08-16T05:56:39.718Z,94731.41
2022-08-16T05:59:08.544Z,94729.19
2022-08-16T06:01:38.271Z,94728.66
2022-08-16T06:04:13.341Z,94733.56
2022-08-16T06:06:57.641Z,94734.63
2022-08-16T06:09:42.581Z,94737.81
2022-08-16T06:12:11.597Z,94737.56
2022-08-16T06:14:40.089Z,94736.81
2022-08-16T06:17:08.663Z,94740.72
2022-08-16T06:19:45.350Z,94744.41
2022-08-16T06:22:37.173Z,94738.16
2022-08-16T06:25:04.509Z,94740.53
2022-08-16T06:27:39.476Z,94743.13
2022-08-16T06:30:10.653Z,94740.75
2022-08-16T06:32:42.920Z,94744.69
2022-08-16T06:35:13.579Z,94748.34
2022-08-16T06:37:42.978Z,94752.22
2022-08-16T06:40:15.913Z,94755.59
2022-08-16T06:42:54.012Z,94749.84
2022-08-16T06:45:51.307Z,94742.53
2022-08-16T06:48:32.269Z,94750.81
2022-08-16T06:51:03.866Z,94760.66
2022-08-16T06:53:35.461Z,94760.38
2022-08-16T06:56:14.919Z,94762.13
2022-08-16T06:59:04.297Z,94760.25
2022-08-16T07:01:43.446Z,94764.63
2022-08-16T07:04:31.824Z,94761.19
2022-08-16T07:07:05.570Z,94750.75
2022-08-16T07:09:33.956Z,94751.22
2022-08-16T07:12:03.535Z,94755.81
2022-08-16T07:14:35.385Z,94746.16
2022-08-16T07:17:07.903Z,94757.91
2022-08-16T07:20:02.962Z,94766.38
2022-08-16T07:22:37.834Z,94758.75
2022-08-16T07:25:16.674Z,94752.19
2022-08-16T07:27:45.064Z,94753.72
2022-08-16T07:30:39.126Z,94754.13
2022-08-16T07:33:09.364Z,94747.94
2022-08-16T07:35:44.555Z,94745.13
2022-08-16T07:38:20.285Z,94753.13
2022-08-16T07:41:10.309Z,94747.31
2022-08-16T07:43:43.506Z,94747.44
2022-08-16T07:46:39.437Z,94752.63
2022-08-16T07:49:11.180Z,94757.16
2022-08-16T07:51:40.368Z,94754.88
2022-08-16T07:54:20.858Z,94751.88
2022-08-16T07:56:51.517Z,94746.19
2022-08-16T07:59:21.211Z,94754.72
2022-08-16T08:01:53.085Z,94754.34
2022-08-16T08:04:22.066Z,94752.66
2022-08-16T08:06:52.090Z,94758.44
2022-08-16T08:09:21.787Z,94758.56
2022-08-16T08:12:00.941Z,94762.09
2022-08-16T08:14:34.394Z,94754.81
2022-08-16T08:17:02.957Z,94760.00
2022-08-16T08:19:33.535Z,94758.56
2022-08-16T08:22:05.924Z,94762.06
2022-08-16T08:25:05.799Z,94770.09
2022-08-16T08:27:35.268Z,94765.81
2022-08-16T08:30:49.205Z,94769.00
2022-08-16T08:33:00.345Z,94762.50
2022-08-16T08:35:37.395Z,94771.06
2022-08-16T08:38:08.331Z,94771.09
2022-08-16T08:40:40.533Z,94756.69
2022-08-16T08:43:18.254Z,94759.84
2022-08-16T08:45:59.938Z,94759.06
2022-08-16T08:48:34.000Z,94760.63
2022-08-16T08:51:08.685Z,94767.59
2022-08-16T08:53:43.864Z,94760.09
2022-08-16T08:56:15.652Z,94757.22
2022-08-16T08:58:54.304Z,94768.25
2022-08-16T09:01:36.990Z,94763.47
2022-08-16T09:04:24.137Z,94767.94
2022-08-16T09:06:53.516Z,94763.94
2022-08-16T09:09:22.484Z,94762.09
2022-08-16T09:12:05.987Z,94758.78
2022-08-16T09:14:49.331Z,94757.84
2022-08-16T09:17:45.351Z,94754.78
2022-08-16T09:20:09.378Z,94752.81
2022-08-16T09:22:42.234Z,94751.00
2022-08-16T09:25:13.077Z,94750.25
2022-08-16T09:27:56.450Z,94756.19
2022-08-16T09:30:34.342Z,94760.47
2022-08-16T09:33:11.316Z,94762.66
2022-08-16T09:35:39.495Z,94752.63
2022-08-16T09:38:12.179Z,94751.22
2022-08-16T09:40:42.581Z,94749.59
2022-08-16T09:43:37.758Z,94744.41
2022-08-16T09:46:02.767Z,94744.13
2022-08-16T09:48:44.215Z,94741.91
2022-08-16T09:51:14.111Z,94745.88
2022-08-16T09:53:43.193Z,94742.38
2022-08-16T09:56:21.880Z,94750.66
2022-08-16T09:59:05.509Z,94745.06
2022-08-16T10:01:36.629Z,94745.66
2022-08-16T10:04:08.257Z,94742.97
2022-08-16T10:06:53.867Z,94740.84
2022-08-16T10:09:21.763Z,94742.56
2022-08-16T10:12:11.652Z,94740.09
2022-08-16T10:14:48.719Z,94736.75
2022-08-16T10:17:17.155Z,94735.44
2022-08-16T10:19:47.049Z,94737.88
2022-08-16T10:22:18.352Z,94729.38
2022-08-16T10:24:55.959Z,94725.75
2022-08-16T10:27:45.824Z,94724.84
2022-08-16T10:30:26.069Z,94725.09
2022-08-16T10:32:56.934Z,94739.97
2022-08-16T10:35:33.011Z,94732.88
2022-08-16T10:38:01.510Z,94728.78
2022-08-16T10:40:30.606Z,94723.00
2022-08-16T10:43:00.358Z,94725.53
2022-08-16T10:45:37.052Z,94739.41
2022-08-16T10:48:27.438Z,94735.91
2022-08-16T10:50:58.120Z,94743.81
2022-08-16T10:53:27.227Z,94728.25
2022-08-16T10:56:02.728Z,94734.72
2022-08-16T10:58:34.122Z,94732.16
2022-08-16T11:03:57.235Z,94739.69
2022-08-16T11:06:26.821Z,94742.06
2022-08-16T11:14:34.822Z,94745.53
2022-08-16T11:17:10.572Z,94747.78
2022-08-16T11:22:46.852Z,94743.16
2022-08-16T11:28:08.225Z,94748.25
2022-08-16T11:30:38.633Z,94738.47
2022-08-16T11:33:10.740Z,94734.16
2022-08-16T11:36:22.151Z,94731.81
2022-08-16T11:38:51.846Z,94730.88
2022-08-16T11:41:15.151Z,94725.34
2022-08-16T11:43:43.126Z,94729.22
2022-08-16T11:46:45.299Z,94722.72
2022-08-16T11:49:03.569Z,94721.59
2022-08-16T11:51:31.496Z,94722.78
2022-08-16T11:53:59.467Z,94723.63
2022-08-16T11:56:39.604Z,94716.94
2022-08-16T11:59:15.188Z,94719.97
2022-08-16T12:01:55.274Z,94712.16
2022-08-16T12:04:28.759Z,94710.84
2022-08-16T12:06:58.697Z,94716.63
2022-08-16T12:09:29.502Z,94722.41
2022-08-16T12:11:58.668Z,94719.53
2022-08-16T12:14:35.095Z,94712.53
2022-08-16T12:17:04.415Z,94712.78
2022-08-16T12:19:35.806Z,94709.97
2022-08-16T12:22:05.826Z,94702.63
2022-08-16T12:24:50.915Z,94714.19
2022-08-16T12:27:19.459Z,94706.47
2022-08-16T12:29:47.326Z,94711.03
2022-08-16T12:32:37.442Z,94708.91
2022-08-16T12:35:06.649Z,94705.41
2022-08-16T12:37:35.692Z,94708.44
2022-08-16T12:40:07.100Z,94709.34
2022-08-16T12:42:53.077Z,94712.47
2022-08-16T12:45:23.827Z,94709.25
2022-08-16T12:48:32.964Z,94705.22
2022-08-16T12:51:01.635Z,94709.22
2022-08-16T12:53:31.754Z,94694.00
2022-08-16T12:56:00.444Z,94707.25
2022-08-16T12:58:48.752Z,94694.88
2022-08-16T13:01:16.362Z,94698.22
2022-08-16T13:03:45.450Z,94689.84
2022-08-16T13:06:20.258Z,94688.47
2022-08-16T13:09:00.076Z,94688.91
2022-08-16T13:11:35.485Z,94684.38
2022-08-16T13:14:05.700Z,94692.72
2022-08-16T13:16:33.537Z,94691.41
2022-08-16T13:19:02.089Z,94693.78
2022-08-16T13:21:31.385Z,94687.59
2022-08-16T13:23:59.618Z,94683.22
2022-08-16T13:26:32.047Z,94687.44
2022-08-16T13:29:00.009Z,94680.75
2022-08-16T13:31:27.963Z,94678.22
2022-08-16T13:33:58.632Z,94676.91
2022-08-16T13:39:18.115Z,94680.81
2022-08-16T13:41:53.835Z,94688.59
2022-08-16T13:44:22.503Z,94681.88
2022-08-16T13:47:10.376Z,94687.56
2022-08-16T13:49:38.198Z,94683.94
2022-08-16T13:52:07.370Z,94682.63
2022-08-16T13:54:36.656Z,94684.34
2022-08-16T13:57:05.490Z,94681.81
2022-08-16T13:59:33.559Z,94669.75
2022-08-16T14:02:05.480Z,94672.94
2022-08-16T14:04:36.533Z,94675.59
2022-08-16T14:07:08.162Z,94667.41
2022-08-16T14:09:38.323Z,94665.81
2022-08-16T14:12:17.803Z,94673.19
2022-08-16T14:14:46.776Z,94666.41
2022-08-16T14:17:16.630Z,94647.44
2022-08-16T14:19:46.102Z,94673.00
2022-08-16T14:22:30.816Z,94667.84
2022-08-16T14:25:03.106Z,94668.50
2022-08-16T14:27:31.812Z,94666.22
2022-08-16T14:30:01.324Z,94671.16
2022-08-16T14:32:34.191Z,94671.56
2022-08-16T14:35:04.208Z,94661.41
2022-08-16T14:37:32.679Z,94657.28
2022-08-16T14:40:03.051Z,94665.47
2022-08-16T14:42:31.521Z,94663.41
2022-08-16T14:45:00.407Z,94659.81
2022-08-16T14:47:34.252Z,94664.66
2022-08-16T14:50:03.314Z,94663.16
2022-08-16T14:55:24.226Z,94653.19
2022-08-16T14:57:52.777Z,94648.78
2022-08-16T15:00:33.061Z,94656.38
2022-08-16T15:03:04.822Z,94647.03
2022-08-16T15:05:34.311Z,94651.66
2022-08-16T15:08:03.485Z,94649.56
2022-08-16T15:10:33.348Z,94647.25
2022-08-16T15:13:01.888Z,94648.44
2022-08-16T15:15:30.890Z,94656.19
2022-08-16T15:18:01.825Z,94658.50
2022-08-16T15:20:32.437Z,94655.47
2022-08-16T15:23:02.713Z,94661.50
2022-08-16T15:25:35.361Z,94652.88
2022-08-16T15:28:06.231Z,94661.59
2022-08-16T15:30:59.324Z,94665.88
2022-08-16T15:33:29.132Z,94658.53
2022-08-16T15:36:00.584Z,94661.47
2022-08-16T15:38:55.180Z,94667.88
2022-08-16T15:41:54.549Z,94669.41
2022-08-16T15:44:24.209Z,94664.97
2022-08-16T15:46:55.868Z,94658.66
2022-08-16T15:49:37.565Z,94658.25
2022-08-16T15:52:12.568Z,94657.69
2022-08-16T15:54:53.014Z,94658.66
2022-08-16T15:57:26.455Z,94653.31
2022-08-16T15:59:56.127Z,94655.03
2022-08-16T16:02:40.303Z,94648.00
2022-08-16T16:05:10.423Z,94657.75
2022-08-16T16:07:40.810Z,94658.13
2022-08-16T16:10:29.359Z,94660.63
2022-08-16T16:13:01.705Z,94657.28
2022-08-16T16:15:33.683Z,94647.38
2022-08-16T16:18:09.467Z,94656.69
2022-08-16T16:20:39.617Z,94649.94
2022-08-16T16:23:11.080Z,94657.94
2022-08-16T16:25:43.562Z,94647.72
2022-08-16T16:29:07.756Z,94644.34
2022-08-16T16:31:05.729Z,94647.03
2022-08-16T16:33:38.362Z,94638.56
2022-08-16T16:36:10.086Z,94638.34
2022-08-16T16:38:41.995Z,94628.19
2022-08-16T16:41:11.254Z,94634.16
2022-08-16T16:43:44.265Z,94639.66
2022-08-16T16:46:40.229Z,94633.78
2022-08-16T16:49:04.772Z,94634.25
2022-08-16T16:51:35.748Z,94626.28
2022-08-16T16:54:09.929Z,94633.69
2022-08-16T16:56:45.960Z,94635.13
2022-08-16T16:59:19.994Z,94637.88
2022-08-16T17:02:00.332Z,94637.88
2022-08-16T17:04:38.473Z,94645.69
2022-08-16T17:07:07.862Z,94642.38
2022-08-16T17:09:39.480Z,94652.81
2022-08-16T17:12:09.033Z,94649.53
2022-08-16T17:14:38.665Z,94639.53
2022-08-16T17:17:11.696Z,94643.94
2022-08-16T17:19:42.468Z,94641.84
2022-08-16T17:22:14.377Z,94647.78
2022-08-16T17:24:50.990Z,94649.81
2022-08-16T17:27:33.854Z,94654.97
2022-08-16T17:30:14.802Z,94649.84
2022-08-16T17:32:47.064Z,94662.53
2022-08-16T17:35:18.968Z,94663.63
2022-08-16T17:37:50.857Z,94656.28
2022-08-16T17:40:23.419Z,94665.84
2022-08-16T17:43:10.259Z,94660.97
2022-08-16T17:45:40.772Z,94661.75
2022-08-16T17:48:08.986Z,94672.22
2022-08-16T17:50:37.469Z,94665.28
2022-08-16T17:53:07.382Z,94652.31
2022-08-16T17:55:38.803Z,94671.84
2022-08-16T17:58:20.149Z,94672.22
2022-08-16T18:00:55.879Z,94678.56
2022-08-16T18:04:03.183Z,94676.69
2022-08-16T18:06:18.579Z,94675.75
2022-08-16T18:08:48.852Z,94667.03
2022-08-16T18:11:18.964Z,94677.47
2022-08-16T18:13:55.849Z,94668.69
2022-08-16T18:16:25.795Z,94675.34
2022-08-16T18:18:53.980Z,94666.59
2022-08-16T18:21:39.692Z,94669.28
2022-08-16T18:24:07.914Z,94661.19
2022-08-16T18:26:36.033Z,94667.56
2022-08-16T18:29:04.360Z,94677.31
2022-08-16T18:31:34.763Z,94682.59
2022-08-16T18:34:02.723Z,94674.94
2022-08-16T18:36:31.198Z,94672.53
2022-08-16T18:38:59.620Z,94669.88
2022-08-16T18:41:28.826Z,94686.38
2022-08-16T18:44:26.080Z,94686.09
2022-08-16T18:46:48.916Z,94688.25
2022-08-16T18:49:19.321Z,94686.56
2022-08-16T18:51:47.436Z,94698.00
2022-08-16T18:54:18.247Z,94687.47
2022-08-16T18:56:55.222Z,94699.19
2022-08-16T18:59:25.796Z,94700.72
2022-08-16T19:02:00.507Z,94708.59
2022-08-16T19:04:55.962Z,94696.88
2022-08-16T19:07:22.149Z,94704.03
2022-08-16T19:09:50.122Z,94708.56
2022-08-16T19:12:18.203Z,94722.66
2022-08-16T19:15:08.565Z,94713.19
2022-08-16T19:17:41.561Z,94709.19
2022-08-16T19:20:11.274Z,94711.19
2022-08-16T19:23:10.912Z,94717.47
2022-08-16T19:25:48.826Z,94722.63
2022-08-16T19:28:48.992Z,94715.09
2022-08-16T19:31:12.275Z,94729.38
2022-08-16T19:33:53.173Z,94725.03
2022-08-16T19:36:31.980Z,94721.91
2022-08-16T19:39:05.367Z,94728.88
2022-08-16T19:41:35.690Z,94720.25
2022-08-16T19:44:04.564Z,94729.09
2022-08-16T19:46:32.734Z,94723.88
2022-08-16T19:49:02.299Z,94722.41
2022-08-16T19:51:32.005Z,94733.19
2022-08-16T19:54:00.170Z,94734.41
2022-08-16T19:56:28.169Z,94725.91
2022-08-16T20:01:44.996Z,94729.44
2022-08-16T20:04:17.125Z,94735.00
2022-08-16T20:06:45.518Z,94726.16
2022-08-16T20:09:14.799Z,94713.91
2022-08-16T20:11:44.341Z,94728.47
2022-08-16T20:14:24.100Z,94735.03
2022-08-16T20:16:53.749Z,94742.38
2022-08-16T20:19:23.122Z,94732.50
2022-08-16T20:21:53.455Z,94743.94
2022-08-16T20:24:37.013Z,94742.19
2022-08-16T20:27:07.286Z,94738.06
2022-08-16T20:29:36.821Z,94742.81
2022-08-16T20:32:05.723Z,94742.84
2022-08-16T20:34:35.385Z,94749.69
2022-08-16T20:37:05.038Z,94753.34
2022-08-16T20:39:33.191Z,94757.50
2022-08-16T20:42:01.274Z,94754.41
2022-08-16T20:44:29.314Z,94760.41
2022-08-16T20:46:57.345Z,94763.31
2022-08-16T20:49:25.387Z,94756.03
2022-08-16T20:51:59.124Z,94765.75
2022-08-16T20:54:28.545Z,94763.44
2022-08-16T20:56:56.515Z,94761.69
2022-08-16T20:59:24.340Z,94760.41
2022-08-16T21:01:52.710Z,94765.13
2022-08-16T21:04:21.723Z,94763.84
2022-08-16T21:06:53.482Z,94759.72
2022-08-16T21:09:25.649Z,94754.56
2022-08-16T21:11:55.859Z,94757.69
2022-08-16T21:14:24.196Z,94759.50
2022-08-16T21:16:52.113Z,94756.91
2022-08-16T21:19:20.471Z,94747.53
2022-08-16T21:21:48.765Z,94754.03
2022-08-16T21:24:16.941Z,94759.75
2022-08-16T21:26:55.241Z,94757.69
2022-08-16T21:29:31.619Z,94766.25
2022-08-16T21:32:11.197Z,94763.38
2022-08-16T21:34:39.262Z,94754.56
2022-08-16T21:37:07.355Z,94759.50
2022-08-16T21:39:35.490Z,94763.41
2022-08-16T21:42:08.945Z,94760.81
2022-08-16T21:44:38.854Z,94763.97
2022-08-16T21:47:08.240Z,94757.44
2022-08-16T21:49:36.765Z,94767.56
2022-08-16T21:52:05.744Z,94763.13
2022-08-16T21:54:33.587Z,94767.78
2022-08-16T21:57:01.395Z,94765.53
2022-08-16T21:59:30.618Z,94770.13
2022-08-16T22:01:58.465Z,94763.69
2022-08-16T22:04:38.044Z,94767.91
2022-08-16T22:07:07.379Z,94767.91
2022-08-16T22:09:35.392Z,94770.75
2022-08-16T22:12:03.267Z,94773.59
2022-08-16T22:14:32.992Z,94769.09
2022-08-16T22:17:00.905Z,94764.47
2022-08-16T22:19:29.403Z,94761.53
2022-08-16T22:21:57.239Z,94759.97
2022-08-16T22:24:25.039Z,94764.16
2022-08-16T22:26:52.873Z,94751.66
2022-08-16T22:29:21.850Z,94749.34
2022-08-16T22:31:51.223Z,94752.22
2022-08-16T22:34:19.457Z,94758.44
2022-08-16T22:36:47.280Z,94763.63
2022-08-16T22:39:15.639Z,94764.97
2022-08-16T22:41:45.748Z,94766.50
2022-08-16T22:44:14.525Z,94768.88
2022-08-16T22:46:42.396Z,94769.63
2022-08-16T22:49:12.422Z,94766.00
2022-08-16T22:51:41.302Z,94766.50
2022-08-16T22:54:44.415Z,94770.94
2022-08-16T22:56:57.623Z,94764.44
2022-08-16T22:59:26.010Z,94766.50
2022-08-16T23:01:54.012Z,94764.66
2022-08-16T23:04:23.895Z,94757.84
2022-08-16T23:06:52.126Z,94753.66
2022-08-16T23:09:20.137Z,94756.16
2022-08-16T23:11:48.248Z,94751.78
2022-08-16T23:14:16.586Z,94752.56
2022-08-16T23:16:47.189Z,94750.75
2022-08-16T23:19:16.588Z,94746.84
2022-08-16T23:21:48.902Z,94747.69
2022-08-16T23:24:19.184Z,94746.16
2022-08-16T23:26:49.135Z,94747.72
2022-08-16T23:29:23.398Z,94747.25
2022-08-16T23:31:54.565Z,94748.81
2022-08-16T23:34:22.530Z,94744.66
2022-08-16T23:36:51.698Z,94746.97
2022-08-16T23:39:19.603Z,94748.25
2022-08-16T23:41:47.538Z,94735.75
2022-08-16T23:44:57.429Z,94741.72
2022-08-16T23:47:03.417Z,94743.31
2022-08-16T23:49:58.988Z,94734.72
2022-08-16T23:52:54.739Z,94726.94
2022-08-16T23:55:10.098Z,94733.66
2022-08-16T23:57:37.946Z,94735.78
